createdAt,value
2023-04-10T00:02:23.420Z,99091.00
2023-04-10T00:04:50.047Z,99090.00
2023-04-10T00:07:17.085Z,99096.00
2023-04-10T00:09:43.577Z,99094.00
2023-04-10T00:12:11.205Z,99098.00
2023-04-10T00:14:38.115Z,99095.00
2023-04-10T00:17:04.763Z,99096.00
2023-04-10T00:19:31.474Z,99082.00
2023-04-10T00:21:58.048Z,99083.00
2023-04-10T00:24:24.719Z,99079.00
2023-04-10T00:26:51.243Z,99077.00
2023-04-10T00:29:18.529Z,99078.00
2023-04-10T00:31:45.475Z,99085.00
2023-04-10T00:34:12.092Z,99085.00
2023-04-10T00:36:38.649Z,99091.00
2023-04-10T00:39:05.204Z,99091.00
2023-04-10T00:41:31.683Z,99092.00
2023-04-10T00:43:58.511Z,99095.00
2023-04-10T00:46:25.180Z,99097.00
2023-04-10T00:48:52.577Z,99094.00
2023-04-10T00:51:20.750Z,99094.00
2023-04-10T00:53:48.371Z,99094.00
2023-04-10T00:56:15.458Z,99089.00
2023-04-10T00:58:41.954Z,99102.00
2023-04-10T01:01:08.661Z,99092.00
2023-04-10T01:03:36.226Z,99086.00
2023-04-10T01:06:14.281Z,99099.00
2023-04-10T01:08:51.974Z,99092.00
2023-04-10T01:11:37.316Z,99086.00
2023-04-10T01:14:31.813Z,99083.00
2023-04-10T01:17:13.051Z,99077.00
2023-04-10T01:20:00.854Z,99067.00
2023-04-10T01:23:04.125Z,99068.00
2023-04-10T01:25:45.472Z,99065.00
2023-04-10T01:28:19.681Z,99059.00
2023-04-10T01:30:48.537Z,99052.00
2023-04-10T01:33:21.262Z,99057.00
2023-04-10T01:35:52.693Z,99054.00
2023-04-10T01:38:21.184Z,99040.00
2023-04-10T01:40:52.583Z,99048.00
2023-04-10T01:43:28.022Z,99041.00
2023-04-10T01:45:57.396Z,99050.00
2023-04-10T01:48:24.968Z,99049.00
2023-04-10T01:50:53.189Z,99043.00
2023-04-10T01:53:20.633Z,99047.00
2023-04-10T01:55:48.218Z,99041.00
2023-04-10T01:58:15.383Z,99041.00
2023-04-10T02:00:45.787Z,99052.00
2023-04-10T02:03:14.180Z,99049.00
2023-04-10T02:06:02.404Z,99051.00
2023-04-10T02:08:37.560Z,99040.00
2023-04-10T02:11:25.364Z,99048.00
2023-04-10T02:13:53.988Z,99044.00
2023-04-10T02:16:22.711Z,99039.00
2023-04-10T02:18:50.600Z,99032.00
2023-04-10T02:21:17.415Z,99028.00
2023-04-10T02:23:44.054Z,99034.00
2023-04-10T02:26:10.546Z,99034.00
2023-04-10T02:28:40.251Z,99024.00
2023-04-10T02:31:07.704Z,99031.00
2023-04-10T02:33:34.354Z,99026.00
2023-04-10T02:36:01.563Z,99024.00
2023-04-10T02:38:28.812Z,99013.00
2023-04-10T02:40:55.814Z,99005.00
2023-04-10T02:43:22.582Z,99004.00
2023-04-10T02:45:49.061Z,99009.00
2023-04-10T02:48:22.378Z,99006.00
2023-04-10T02:50:59.905Z,98998.00
2023-04-10T02:53:28.200Z,98996.00
2023-04-10T02:55:58.141Z,98993.00
2023-04-10T02:58:24.720Z,98992.00
2023-04-10T03:00:54.241Z,98988.00
2023-04-10T03:03:41.642Z,98984.00
2023-04-10T03:06:09.333Z,98978.00
2023-04-10T03:08:36.715Z,98981.00
2023-04-10T03:11:03.284Z,98973.00
2023-04-10T03:13:29.767Z,98973.00
2023-04-10T03:15:56.584Z,98974.00
2023-04-10T03:18:23.405Z,98974.00
2023-04-10T03:20:52.428Z,98974.00
2023-04-10T03:23:20.586Z,98968.00
2023-04-10T03:25:51.215Z,98978.00
2023-04-10T03:28:18.539Z,98971.00
2023-04-10T03:30:45.214Z,98970.00
2023-04-10T03:33:11.740Z,98971.00
2023-04-10T03:35:38.396Z,98968.00
2023-04-10T03:38:06.855Z,98971.00
2023-04-10T03:40:34.312Z,98969.00
2023-04-10T03:43:01.054Z,98968.00
2023-04-10T03:45:30.521Z,98964.00
2023-04-10T03:47:57.098Z,98961.00
2023-04-10T03:50:23.715Z,98963.00
2023-04-10T03:52:55.497Z,98961.00
2023-04-10T03:55:23.729Z,98967.00
2023-04-10T03:57:51.266Z,98969.00
2023-04-10T04:00:21.172Z,98978.00
2023-04-10T04:02:51.833Z,98975.00
2023-04-10T04:05:44.363Z,98965.00
2023-04-10T04:08:38.604Z,98967.00
2023-04-10T04:11:07.841Z,98973.00
2023-04-10T04:13:52.446Z,98965.00
2023-04-10T04:16:48.979Z,98972.00
2023-04-10T04:19:28.033Z,98961.00
2023-04-10T04:22:12.852Z,98972.00
2023-04-10T04:25:01.535Z,98965.00
2023-04-10T04:28:06.826Z,98974.00
2023-04-10T04:30:33.300Z,98967.00
2023-04-10T04:33:10.215Z,98973.00
2023-04-10T04:35:57.676Z,98965.00
2023-04-10T04:38:36.185Z,98964.00
2023-04-10T04:41:11.820Z,98970.00
2023-04-10T04:43:42.476Z,98972.00
2023-04-10T04:46:25.040Z,98985.00
2023-04-10T04:49:10.683Z,98977.00
2023-04-10T04:52:00.384Z,98980.00
2023-04-10T04:54:40.402Z,98966.00
2023-04-10T04:57:21.566Z,98965.00
2023-04-10T05:00:07.580Z,98963.00
2023-04-10T05:02:52.514Z,98964.00
2023-04-10T05:05:31.468Z,98950.00
2023-04-10T05:08:16.754Z,98955.00
2023-04-10T05:10:57.747Z,98959.00
2023-04-10T05:13:39.721Z,98959.00
2023-04-10T05:16:19.902Z,98954.00
2023-04-10T05:19:01.963Z,98954.00
2023-04-10T05:21:52.976Z,98958.00
2023-04-10T05:24:37.808Z,98955.00
2023-04-10T05:27:17.493Z,98955.00
2023-04-10T05:30:04.536Z,98949.00
2023-04-10T05:32:43.161Z,98951.00
2023-04-10T05:35:26.277Z,98950.00
2023-04-10T05:38:00.738Z,98950.00
2023-04-10T05:40:38.200Z,98945.00
2023-04-10T05:43:24.934Z,98960.00
2023-04-10T05:45:58.835Z,98968.00
2023-04-10T05:49:01.984Z,98964.00
2023-04-10T05:51:50.236Z,98963.00
2023-04-10T05:54:33.317Z,98965.00
2023-04-10T05:57:32.429Z,98977.00
2023-04-10T06:00:18.120Z,98974.00
2023-04-10T06:03:20.171Z,98961.00
2023-04-10T06:05:54.721Z,98971.00
2023-04-10T06:08:22.738Z,98969.00
2023-04-10T06:10:49.304Z,98972.00
2023-04-10T06:13:15.790Z,98974.00
2023-04-10T06:15:42.432Z,98964.00
2023-04-10T06:18:09.334Z,98970.00
2023-04-10T06:20:37.226Z,98961.00
2023-04-10T06:23:03.835Z,98962.00
2023-04-10T06:25:30.738Z,98968.00
2023-04-10T06:27:59.260Z,98961.00
2023-04-10T06:30:26.324Z,98967.00
2023-04-10T06:32:53.141Z,98963.00
2023-04-10T06:35:21.314Z,98961.00
2023-04-10T06:37:47.906Z,98964.00
2023-04-10T06:40:16.085Z,98969.00
2023-04-10T06:42:42.807Z,98961.00
2023-04-10T06:45:23.857Z,98958.00
2023-04-10T06:47:50.577Z,98965.00
2023-04-10T06:50:17.274Z,98960.00
2023-04-10T06:52:47.467Z,98968.00
2023-04-10T06:55:13.990Z,98961.00
2023-04-10T06:57:40.774Z,98970.00
2023-04-10T07:00:08.011Z,98962.00
2023-04-10T07:02:34.697Z,98965.00
2023-04-10T07:05:01.433Z,98973.00
2023-04-10T07:07:29.196Z,98959.00
2023-04-10T07:09:58.982Z,98955.00
2023-04-10T07:12:25.534Z,98960.00
2023-04-10T07:14:52.025Z,98953.00
2023-04-10T07:17:18.507Z,98947.00
2023-04-10T07:19:44.980Z,98955.00
2023-04-10T07:22:11.565Z,98947.00
2023-04-10T07:24:38.100Z,98951.00
2023-04-10T07:27:04.615Z,98954.00
2023-04-10T07:29:31.556Z,98950.00
2023-04-10T07:31:58.214Z,98951.00
2023-04-10T07:34:26.243Z,98945.00
2023-04-10T07:36:52.804Z,98941.00
2023-04-10T07:39:19.446Z,98944.00
2023-04-10T07:41:46.061Z,98947.00
2023-04-10T07:44:13.273Z,98960.00
2023-04-10T07:46:40.098Z,98954.00
2023-04-10T07:49:08.552Z,98951.00
2023-04-10T07:51:35.543Z,98953.00
2023-04-10T07:54:03.557Z,98954.00
2023-04-10T07:56:31.462Z,98950.00
2023-04-10T07:59:00.670Z,98943.00
2023-04-10T08:01:28.662Z,98952.00
2023-04-10T08:03:56.430Z,98945.00
2023-04-10T08:06:23.203Z,98948.00
2023-04-10T08:08:50.764Z,98937.00
2023-04-10T08:11:29.468Z,98936.00
2023-04-10T08:13:58.790Z,98939.00
2023-04-10T08:16:27.010Z,98937.00
2023-04-10T08:18:55.118Z,98938.00
2023-04-10T08:21:23.326Z,98936.00
2023-04-10T08:23:53.949Z,98935.00
2023-04-10T08:26:21.298Z,98922.00
2023-04-10T08:28:56.326Z,98928.00
2023-04-10T08:31:25.490Z,98928.00
2023-04-10T08:33:55.695Z,98932.00
2023-04-10T08:36:23.207Z,98925.00
2023-04-10T08:38:50.215Z,98920.00
2023-04-10T08:41:22.715Z,98920.00
2023-04-10T08:43:51.434Z,98917.00
2023-04-10T08:46:18.802Z,98918.00
2023-04-10T08:48:59.822Z,98919.00
2023-04-10T08:51:50.898Z,98920.00
2023-04-10T08:54:38.690Z,98913.00
2023-04-10T08:57:08.114Z,98905.00
2023-04-10T08:59:36.522Z,98904.00
2023-04-10T09:02:03.178Z,98904.00
2023-04-10T09:04:29.940Z,98904.00
2023-04-10T09:06:56.553Z,98900.00
2023-04-10T09:09:23.105Z,98898.00
2023-04-10T09:11:52.576Z,98893.00
2023-04-10T09:14:30.834Z,98891.00
2023-04-10T09:17:25.014Z,98893.00
2023-04-10T09:19:55.873Z,98900.00
2023-04-10T09:22:30.988Z,98900.00
2023-04-10T09:24:59.399Z,98894.00
2023-04-10T09:27:35.126Z,98892.00
2023-04-10T09:30:02.540Z,98879.00
2023-04-10T09:32:38.300Z,98890.00
2023-04-10T09:35:05.896Z,98882.00
2023-04-10T09:37:33.581Z,98866.00
2023-04-10T09:40:00.685Z,98865.00
2023-04-10T09:42:32.512Z,98866.00
2023-04-10T09:44:59.829Z,98877.00
2023-04-10T09:47:27.147Z,98868.00
2023-04-10T09:50:00.608Z,98859.00
2023-04-10T09:52:28.426Z,98858.00
2023-04-10T09:55:07.607Z,98853.00
2023-04-10T09:57:35.744Z,98855.00
2023-04-10T10:00:05.181Z,98847.00
2023-04-10T10:02:39.384Z,98848.00
2023-04-10T10:05:07.082Z,98844.00
2023-04-10T10:07:34.717Z,98852.00
2023-04-10T10:10:02.884Z,98842.00
2023-04-10T10:12:35.548Z,98843.00
2023-04-10T10:15:10.282Z,98840.00
2023-04-10T10:17:46.970Z,98834.00
2023-04-10T10:20:17.745Z,98834.00
2023-04-10T10:22:46.450Z,98835.00
2023-04-10T10:25:13.232Z,98840.00
2023-04-10T10:27:41.705Z,98829.00
2023-04-10T10:30:25.231Z,98828.00
2023-04-10T10:32:56.252Z,98826.00
2023-04-10T10:35:25.432Z,98830.00
2023-04-10T10:37:54.249Z,98830.00
2023-04-10T10:40:42.766Z,98832.00
2023-04-10T10:43:18.629Z,98827.00
2023-04-10T10:46:15.711Z,98825.00
2023-04-10T10:48:58.303Z,98811.00
2023-04-10T10:51:43.203Z,98809.00
2023-04-10T10:54:29.519Z,98809.00
2023-04-10T10:57:00.293Z,98802.00
2023-04-10T10:59:51.151Z,98801.00
2023-04-10T11:02:24.893Z,98794.00
2023-04-10T11:04:59.728Z,98798.00
2023-04-10T11:07:58.635Z,98814.00
2023-04-10T11:11:07.144Z,98806.00
2023-04-10T11:13:36.278Z,98814.00
2023-04-10T11:16:07.733Z,98796.00
2023-04-10T11:19:14.160Z,98796.00
2023-04-10T11:22:15.813Z,98801.00
2023-04-10T11:24:59.723Z,98793.00
2023-04-10T11:27:51.776Z,98778.00
2023-04-10T11:30:30.978Z,98773.00
2023-04-10T11:33:05.119Z,98757.00
2023-04-10T11:35:32.931Z,98752.00
2023-04-10T11:38:29.582Z,98764.00
2023-04-10T11:40:58.838Z,98756.00
2023-04-10T11:43:26.042Z,98762.00
2023-04-10T11:46:06.421Z,98754.00
2023-04-10T11:48:37.564Z,98754.00
2023-04-10T11:51:13.160Z,98757.00
2023-04-10T11:53:42.103Z,98752.00
2023-04-10T11:56:21.155Z,98752.00
2023-04-10T11:58:50.419Z,98741.00
2023-04-10T12:01:21.559Z,98733.00
2023-04-10T12:03:48.512Z,98732.00
2023-04-10T12:06:15.591Z,98726.00
2023-04-10T12:08:47.667Z,98723.00
2023-04-10T12:11:14.611Z,98723.00
2023-04-10T12:13:41.141Z,98720.00
2023-04-10T12:16:09.479Z,98715.00
2023-04-10T12:18:36.828Z,98717.00
2023-04-10T12:21:06.135Z,98721.00
2023-04-10T12:23:37.361Z,98712.00
2023-04-10T12:26:14.920Z,98709.00
2023-04-10T12:28:50.533Z,98708.00
2023-04-10T12:31:17.258Z,98705.00
2023-04-10T12:33:45.973Z,98701.00
2023-04-10T12:36:23.001Z,98702.00
2023-04-10T12:38:49.936Z,98702.00
2023-04-10T12:41:23.619Z,98696.00
2023-04-10T12:43:51.794Z,98699.00
2023-04-10T12:46:27.434Z,98702.00
2023-04-10T12:49:08.463Z,98696.00
2023-04-10T12:51:49.206Z,98693.00
2023-04-10T12:54:33.572Z,98696.00
2023-04-10T12:57:01.478Z,98683.00
2023-04-10T12:59:30.295Z,98679.00
2023-04-10T13:01:57.093Z,98682.00
2023-04-10T13:04:24.369Z,98688.00
2023-04-10T13:06:54.012Z,98684.00
2023-04-10T13:09:21.071Z,98673.00
2023-04-10T13:11:49.586Z,98677.00
2023-04-10T13:14:17.812Z,98680.00
2023-04-10T13:16:44.866Z,98678.00
2023-04-10T13:19:12.878Z,98677.00
2023-04-10T13:21:39.501Z,98677.00
2023-04-10T13:24:05.995Z,98675.00
2023-04-10T13:26:32.519Z,98669.00
2023-04-10T13:28:59.138Z,98671.00
2023-04-10T13:31:25.886Z,98660.00
2023-04-10T13:33:52.386Z,98655.00
2023-04-10T13:36:19.095Z,98656.00
2023-04-10T13:38:46.005Z,98655.00
2023-04-10T13:41:12.620Z,98650.00
2023-04-10T13:43:39.147Z,98643.00
2023-04-10T13:46:06.524Z,98646.00
2023-04-10T13:48:39.938Z,98641.00
2023-04-10T13:51:08.340Z,98642.00
2023-04-10T13:53:35.536Z,98639.00
2023-04-10T13:56:02.193Z,98630.00
2023-04-10T13:58:31.906Z,98631.00
2023-04-10T14:00:58.847Z,98627.00
2023-04-10T14:03:25.945Z,98631.00
2023-04-10T14:05:52.966Z,98624.00
2023-04-10T14:08:20.079Z,98622.00
2023-04-10T14:10:50.795Z,98617.00
2023-04-10T14:13:18.112Z,98618.00
2023-04-10T14:15:45.125Z,98619.00
2023-04-10T14:18:11.776Z,98618.00
2023-04-10T14:20:39.130Z,98618.00
2023-04-10T14:23:05.812Z,98612.00
2023-04-10T14:25:32.327Z,98606.00
2023-04-10T14:27:59.338Z,98594.00
2023-04-10T14:30:30.759Z,98587.00
2023-04-10T14:32:57.553Z,98580.00
2023-04-10T14:35:24.258Z,98582.00
2023-04-10T14:37:50.828Z,98584.00
2023-04-10T14:40:17.384Z,98574.00
2023-04-10T14:42:43.903Z,98573.00
2023-04-10T14:45:10.622Z,98562.00
2023-04-10T14:47:37.166Z,98563.00
2023-04-10T14:50:04.042Z,98548.00
2023-04-10T14:52:30.575Z,98545.00
2023-04-10T14:54:57.125Z,98528.00
2023-04-10T14:57:23.793Z,98520.00
2023-04-10T14:59:50.986Z,98522.00
2023-04-10T15:02:18.088Z,98526.00
2023-04-10T15:04:44.848Z,98520.00
2023-04-10T15:07:12.966Z,98520.00
2023-04-10T15:09:40.735Z,98523.00
2023-04-10T15:12:07.630Z,98523.00
2023-04-10T15:14:34.675Z,98519.00
2023-04-10T15:17:01.603Z,98515.00
2023-04-10T15:19:28.718Z,98520.00
2023-04-10T15:21:55.650Z,98522.00
2023-04-10T15:24:22.410Z,98515.00
2023-04-10T15:26:49.023Z,98507.00
2023-04-10T15:29:15.745Z,98511.00
2023-04-10T15:31:42.330Z,98510.00
2023-04-10T15:34:09.263Z,98495.00
2023-04-10T15:36:35.840Z,98487.00
2023-04-10T15:39:05.506Z,98466.00
2023-04-10T15:41:32.691Z,98471.00
2023-04-10T15:43:59.596Z,98473.00
2023-04-10T15:46:26.965Z,98463.00
2023-04-10T15:48:53.621Z,98462.00
2023-04-10T15:51:20.384Z,98471.00
2023-04-10T15:53:46.836Z,98462.00
2023-04-10T15:56:15.983Z,98461.00
2023-04-10T15:58:42.902Z,98463.00
2023-04-10T16:01:09.393Z,98480.00
2023-04-10T16:03:36.087Z,98482.00
2023-04-10T16:06:03.126Z,98479.00
2023-04-10T16:08:29.662Z,98478.00
2023-04-10T16:10:56.337Z,98481.00
2023-04-10T16:13:22.862Z,98480.00
2023-04-10T16:15:50.036Z,98491.00
2023-04-10T16:18:19.829Z,98478.00
2023-04-10T16:20:46.396Z,98468.00
2023-04-10T16:23:12.953Z,98475.00
2023-04-10T16:25:39.631Z,98474.00
2023-04-10T16:28:07.953Z,98470.00
2023-04-10T16:30:35.955Z,98474.00
2023-04-10T16:33:04.123Z,98472.00
2023-04-10T16:35:30.948Z,98466.00
2023-04-10T16:37:57.640Z,98481.00
2023-04-10T16:40:27.622Z,98473.00
2023-04-10T16:42:54.186Z,98478.00
2023-04-10T16:45:20.744Z,98466.00
2023-04-10T16:47:47.372Z,98457.00
2023-04-10T16:50:14.091Z,98446.00
2023-04-10T16:52:40.881Z,98441.00
2023-04-10T16:55:07.844Z,98435.00
2023-04-10T16:57:34.532Z,98438.00
2023-04-10T17:00:01.420Z,98440.00
2023-04-10T17:02:29.719Z,98434.00
2023-04-10T17:04:56.610Z,98417.00
2023-04-10T17:07:24.077Z,98410.00
2023-04-10T17:09:50.630Z,98404.00
2023-04-10T17:12:17.330Z,98396.00
2023-04-10T17:14:44.086Z,98389.00
2023-04-10T17:17:10.740Z,98385.00
2023-04-10T17:19:37.267Z,98392.00
2023-04-10T17:22:03.887Z,98398.00
2023-04-10T17:24:31.558Z,98409.00
2023-04-10T17:26:58.289Z,98393.00
2023-04-10T17:29:25.802Z,98385.00
2023-04-10T17:31:52.494Z,98375.00
2023-04-10T17:34:19.026Z,98370.00
2023-04-10T17:36:45.557Z,98381.00
2023-04-10T17:39:12.073Z,98390.00
2023-04-10T17:41:38.617Z,98384.00
2023-04-10T17:44:05.490Z,98384.00
2023-04-10T17:46:31.959Z,98368.00
2023-04-10T17:49:01.155Z,98376.00
2023-04-10T17:51:28.155Z,98369.00
2023-04-10T17:53:55.105Z,98381.00
2023-04-10T17:56:21.632Z,98385.00
2023-04-10T17:58:48.439Z,98384.00
2023-04-10T18:01:27.493Z,98387.00
2023-04-10T18:03:54.386Z,98375.00
2023-04-10T18:06:21.016Z,98373.00
2023-04-10T18:08:47.554Z,98369.00
2023-04-10T18:11:14.064Z,98365.00
2023-04-10T18:13:40.625Z,98361.00
2023-04-10T18:16:07.832Z,98360.00
2023-04-10T18:18:35.651Z,98378.00
2023-04-10T18:21:03.781Z,98364.00
2023-04-10T18:23:31.228Z,98363.00
2023-04-10T18:25:58.045Z,98357.00
2023-04-10T18:28:25.122Z,98363.00
2023-04-10T18:30:56.668Z,98360.00
2023-04-10T18:33:25.145Z,98357.00
2023-04-10T18:35:58.996Z,98337.00
2023-04-10T18:38:26.932Z,98358.00
2023-04-10T18:40:57.523Z,98366.00
2023-04-10T18:43:30.739Z,98380.00
2023-04-10T18:45:57.382Z,98388.00
2023-04-10T18:48:24.000Z,98384.00
2023-04-10T18:50:55.238Z,98391.00
2023-04-10T18:53:22.315Z,98397.00
2023-04-10T18:55:52.741Z,98397.00
2023-04-10T18:58:20.728Z,98399.00
2023-04-10T19:00:47.732Z,98400.00
2023-04-10T19:03:15.890Z,98397.00
2023-04-10T19:05:43.591Z,98395.00
2023-04-10T19:08:14.226Z,98385.00
2023-04-10T19:10:42.064Z,98384.00
2023-04-10T19:13:11.495Z,98373.00
2023-04-10T19:15:42.456Z,98363.00
2023-04-10T19:18:09.452Z,98352.00
2023-04-10T19:20:49.061Z,98350.00
2023-04-10T19:23:18.136Z,98348.00
2023-04-10T19:25:44.797Z,98352.00
2023-04-10T19:28:11.331Z,98347.00
2023-04-10T19:30:37.800Z,98351.00
2023-04-10T19:33:04.428Z,98358.00
2023-04-10T19:35:31.245Z,98354.00
2023-04-10T19:37:58.072Z,98341.00
2023-04-10T19:40:24.683Z,98339.00
2023-04-10T19:42:51.200Z,98323.00
2023-04-10T19:45:17.704Z,98315.00
2023-04-10T19:47:44.410Z,98319.00
2023-04-10T19:50:11.130Z,98326.00
2023-04-10T19:52:38.151Z,98315.00
2023-04-10T19:55:05.139Z,98315.00
2023-04-10T19:57:31.694Z,98315.00
2023-04-10T19:59:58.744Z,98314.00
2023-04-10T20:02:25.673Z,98299.00
2023-04-10T20:04:52.385Z,98297.00
2023-04-10T20:07:18.908Z,98287.00
2023-04-10T20:09:45.514Z,98282.00
2023-04-10T20:12:12.812Z,98269.00
2023-04-10T20:14:39.630Z,98265.00
2023-04-10T20:17:06.134Z,98262.00
2023-04-10T20:19:32.764Z,98249.00
2023-04-10T20:22:02.014Z,98244.00
2023-04-10T20:24:28.963Z,98233.00
2023-04-10T20:26:57.156Z,98232.00
2023-04-10T20:29:23.661Z,98240.00
2023-04-10T20:31:50.156Z,98258.00
2023-04-10T20:34:16.725Z,98263.00
2023-04-10T20:36:44.751Z,98255.00
2023-04-10T20:39:11.625Z,98254.00
2023-04-10T20:41:38.159Z,98249.00
2023-04-10T20:44:04.762Z,98244.00
2023-04-10T20:46:31.284Z,98256.00
2023-04-10T20:48:59.202Z,98273.00
2023-04-10T20:51:27.379Z,98278.00
2023-04-10T20:53:54.007Z,98279.00
2023-04-10T20:56:24.863Z,98275.00
2023-04-10T20:58:53.963Z,98283.00
2023-04-10T21:01:20.674Z,98266.00
2023-04-10T21:03:47.367Z,98265.00
2023-04-10T21:06:15.337Z,98258.00
2023-04-10T21:08:41.903Z,98263.00
2023-04-10T21:11:08.566Z,98250.00
2023-04-10T21:13:37.055Z,98250.00
2023-04-10T21:16:05.274Z,98236.00
2023-04-10T21:18:31.815Z,98238.00
2023-04-10T21:20:58.349Z,98259.00
2023-04-10T21:23:24.979Z,98239.00
2023-04-10T21:25:54.940Z,98232.00
2023-04-10T21:28:21.628Z,98222.00
2023-04-10T21:30:48.179Z,98211.00
2023-04-10T21:33:14.906Z,98204.00
2023-04-10T21:35:45.256Z,98198.00
2023-04-10T21:38:12.411Z,98201.00
2023-04-10T21:40:38.944Z,98205.00
2023-04-10T21:43:06.365Z,98207.00
2023-04-10T21:45:34.724Z,98209.00
2023-04-10T21:48:01.641Z,98203.00
2023-04-10T21:50:28.550Z,98190.00
2023-04-10T21:52:55.389Z,98159.00
2023-04-10T21:55:22.107Z,98151.00
2023-04-10T21:57:48.688Z,98154.00
2023-04-10T22:00:16.892Z,98158.00
2023-04-10T22:02:44.316Z,98155.00
2023-04-10T22:05:13.528Z,98153.00
2023-04-10T22:07:40.348Z,98159.00
2023-04-10T22:10:07.779Z,98161.00
2023-04-10T22:12:34.339Z,98157.00
2023-04-10T22:15:00.884Z,98154.00
2023-04-10T22:17:27.496Z,98166.00
2023-04-10T22:19:54.149Z,98165.00
2023-04-10T22:22:21.182Z,98169.00
2023-04-10T22:24:47.949Z,98186.00
2023-04-10T22:27:14.506Z,98185.00
2023-04-10T22:29:43.488Z,98188.00
2023-04-10T22:32:14.195Z,98189.00
2023-04-10T22:34:41.010Z,98183.00
2023-04-10T22:37:07.636Z,98196.00
2023-04-10T22:39:34.216Z,98189.00
2023-04-10T22:42:00.851Z,98204.00
2023-04-10T22:44:27.464Z,98186.00
2023-04-10T22:46:54.036Z,98197.00
2023-04-10T22:49:20.685Z,98196.00
2023-04-10T22:51:47.214Z,98204.00
2023-04-10T22:54:15.828Z,98197.00
2023-04-10T22:56:44.007Z,98194.00
2023-04-10T22:59:10.819Z,98193.00
2023-04-10T23:01:37.506Z,98194.00
2023-04-10T23:04:04.165Z,98214.00
2023-04-10T23:06:32.373Z,98230.00
2023-04-10T23:08:59.119Z,98230.00
2023-04-10T23:11:25.623Z,98223.00
2023-04-10T23:13:52.190Z,98230.00
2023-04-10T23:16:18.783Z,98227.00
2023-04-10T23:18:45.430Z,98219.00
2023-04-10T23:21:11.944Z,98215.00
2023-04-10T23:23:38.503Z,98207.00
2023-04-10T23:26:05.221Z,98203.00
2023-04-10T23:28:31.783Z,98190.00
2023-04-10T23:30:58.365Z,98203.00
2023-04-10T23:33:24.871Z,98202.00
2023-04-10T23:35:51.424Z,98202.00
2023-04-10T23:38:17.956Z,98186.00
2023-04-10T23:40:44.464Z,98187.00
2023-04-10T23:43:10.980Z,98203.00
2023-04-10T23:45:37.480Z,98190.00
2023-04-10T23:48:04.064Z,98197.00
2023-04-10T23:50:30.647Z,98193.00
2023-04-10T23:52:59.277Z,98183.00
2023-04-10T23:55:26.034Z,98176.00
2023-04-10T23:57:52.496Z,98187.00
